sensor_id;sensor_type;location;lat;lon;timestamp;P1;durP1;ratioP1;P2;durP2;ratioP2
65753;SDS011;69207;47.502;18.940;2023-07-13T00:00:56;6.90;;;3.12;;
65753;SDS011;69207;47.502;18.940;2023-07-13T00:01:59;8.68;;;2.90;;
65753;SDS011;69207;47.502;18.940;2023-07-13T00:03:03;3.67;;;2.33;;
65753;SDS011;69207;47.502;18.940;2023-07-13T00:04:07;5.53;;;2.60;;
65753;SDS011;69207;47.502;18.940;2023-07-13T00:05:10;5.80;;;2.42;;
65753;SDS011;69207;47.502;18.940;2023-07-13T00:06:13;3.70;;;2.25;;
65753;SDS011;69207;47.502;18.940;2023-07-13T00:07:16;3.95;;;2.55;;
65753;SDS011;69207;47.502;18.940;2023-07-13T00:08:22;3.97;;;2.70;;
65753;SDS011;69207;47.502;18.940;2023-07-13T00:09:25;4.40;;;2.30;;
65753;SDS011;69207;47.502;18.940;2023-07-13T00:10:29;3.95;;;2.12;;
65753;SDS011;69207;47.502;18.940;2023-07-13T00:11:32;7.00;;;2.05;;
65753;SDS011;69207;47.502;18.940;2023-07-13T00:12:36;3.67;;;1.92;;
65753;SDS011;69207;47.502;18.940;2023-07-13T00:13:42;3.90;;;1.85;;
65753;SDS011;69207;47.502;18.940;2023-07-13T00:14:46;4.10;;;2.05;;
65753;SDS011;69207;47.502;18.940;2023-07-13T00:15:49;2.90;;;1.70;;
65753;SDS011;69207;47.502;18.940;2023-07-13T00:16:52;3.12;;;1.80;;
65753;SDS011;69207;47.502;18.940;2023-07-13T00:17:55;5.00;;;2.15;;
65753;SDS011;69207;47.502;18.940;2023-07-13T00:18:58;4.70;;;1.90;;
65753;SDS011;69207;47.502;18.940;2023-07-13T00:20:02;6.15;;;2.05;;
65753;SDS011;69207;47.502;18.940;2023-07-13T00:21:06;4.12;;;1.87;;
65753;SDS011;69207;47.502;18.940;2023-07-13T00:22:09;4.32;;;1.75;;
65753;SDS011;69207;47.502;18.940;2023-07-13T00:23:12;2.03;;;1.40;;
65753;SDS011;69207;47.502;18.940;2023-07-13T00:24:17;2.78;;;1.60;;
65753;SDS011;69207;47.502;18.940;2023-07-13T00:25:26;3.12;;;1.58;;
65753;SDS011;69207;47.502;18.940;2023-07-13T00:26:32;5.15;;;2.17;;
65753;SDS011;69207;47.502;18.940;2023-07-13T00:27:35;2.90;;;1.48;;
65753;SDS011;69207;47.502;18.940;2023-07-13T00:28:38;5.53;;;1.90;;
65753;SDS011;69207;47.502;18.940;2023-07-13T00:29:42;3.53;;;1.50;;
65753;SDS011;69207;47.502;18.940;2023-07-13T00:30:44;2.40;;;1.23;;
65753;SDS011;69207;47.502;18.940;2023-07-13T00:31:49;3.45;;;1.15;;
65753;SDS011;69207;47.502;18.940;2023-07-13T00:32:52;1.87;;;1.05;;
65753;SDS011;69207;47.502;18.940;2023-07-13T00:34:13;1.55;;;1.20;;
65753;SDS011;69207;47.502;18.940;2023-07-13T00:35:16;4.68;;;1.10;;
65753;SDS011;69207;47.502;18.940;2023-07-13T00:36:19;1.48;;;0.90;;
65753;SDS011;69207;47.502;18.940;2023-07-13T00:37:23;1.75;;;1.00;;
65753;SDS011;69207;47.502;18.940;2023-07-13T00:38:25;2.47;;;1.00;;
65753;SDS011;69207;47.502;18.940;2023-07-13T00:39:28;1.90;;;1.02;;
65753;SDS011;69207;47.502;18.940;2023-07-13T00:40:31;1.02;;;0.80;;
65753;SDS011;69207;47.502;18.940;2023-07-13T00:41:34;0.88;;;0.68;;
65753;SDS011;69207;47.502;18.940;2023-07-13T00:42:39;0.70;;;0.70;;
65753;SDS011;69207;47.502;18.940;2023-07-13T00:43:43;1.02;;;0.70;;
65753;SDS011;69207;47.502;18.940;2023-07-13T00:46:29;0.90;;;0.80;;
65753;SDS011;69207;47.502;18.940;2023-07-13T00:47:34;1.00;;;0.70;;
65753;SDS011;69207;47.502;18.940;2023-07-13T00:48:37;1.60;;;0.90;;
65753;SDS011;69207;47.502;18.940;2023-07-13T00:49:41;0.90;;;0.80;;
65753;SDS011;69207;47.502;18.940;2023-07-13T00:50:44;1.55;;;0.77;;
65753;SDS011;69207;47.502;18.940;2023-07-13T00:51:58;1.55;;;0.60;;
65753;SDS011;69207;47.502;18.940;2023-07-13T00:53:01;1.20;;;0.80;;
65753;SDS011;69207;47.502;18.940;2023-07-13T00:54:07;0.68;;;0.68;;
65753;SDS011;69207;47.502;18.940;2023-07-13T00:55:14;0.80;;;0.80;;
65753;SDS011;69207;47.502;18.940;2023-07-13T00:56:18;1.87;;;0.80;;
65753;SDS011;69207;47.502;18.940;2023-07-13T00:57:21;2.45;;;0.70;;
65753;SDS011;69207;47.502;18.940;2023-07-13T00:58:25;0.88;;;0.40;;
65753;SDS011;69207;47.502;18.940;2023-07-13T00:59:28;1.40;;;0.70;;
65753;SDS011;69207;47.502;18.940;2023-07-13T01:00:34;0.70;;;0.70;;
65753;SDS011;69207;47.502;18.940;2023-07-13T01:01:39;0.60;;;0.60;;
65753;SDS011;69207;47.502;18.940;2023-07-13T01:02:42;0.80;;;0.50;;
65753;SDS011;69207;47.502;18.940;2023-07-13T01:03:48;1.95;;;0.70;;
65753;SDS011;69207;47.502;18.940;2023-07-13T01:04:51;1.05;;;0.75;;
65753;SDS011;69207;47.502;18.940;2023-07-13T01:05:54;2.05;;;0.60;;
65753;SDS011;69207;47.502;18.940;2023-07-13T01:06:57;2.37;;;0.55;;
65753;SDS011;69207;47.502;18.940;2023-07-13T01:08:01;1.15;;;0.68;;
65753;SDS011;69207;47.502;18.940;2023-07-13T01:09:06;0.93;;;0.55;;
65753;SDS011;69207;47.502;18.940;2023-07-13T01:10:11;1.70;;;0.60;;
65753;SDS011;69207;47.502;18.940;2023-07-13T01:11:20;1.75;;;0.60;;
65753;SDS011;69207;47.502;18.940;2023-07-13T01:12:24;1.52;;;0.88;;
65753;SDS011;69207;47.502;18.940;2023-07-13T01:13:27;1.45;;;0.85;;
65753;SDS011;69207;47.502;18.940;2023-07-13T01:14:30;0.60;;;0.60;;
65753;SDS011;69207;47.502;18.940;2023-07-13T01:15:34;1.42;;;0.70;;
65753;SDS011;69207;47.502;18.940;2023-07-13T01:16:45;1.05;;;0.70;;
65753;SDS011;69207;47.502;18.940;2023-07-13T01:17:52;1.27;;;0.90;;
65753;SDS011;69207;47.502;18.940;2023-07-13T01:18:55;1.10;;;0.88;;
65753;SDS011;69207;47.502;18.940;2023-07-13T01:20:01;1.17;;;0.68;;
65753;SDS011;69207;47.502;18.940;2023-07-13T01:21:04;1.95;;;1.10;;
65753;SDS011;69207;47.502;18.940;2023-07-13T01:22:14;2.10;;;0.80;;
65753;SDS011;69207;47.502;18.940;2023-07-13T01:23:19;1.37;;;0.80;;
65753;SDS011;69207;47.502;18.940;2023-07-13T01:24:22;2.97;;;0.70;;
65753;SDS011;69207;47.502;18.940;2023-07-13T01:25:25;4.85;;;0.90;;
65753;SDS011;69207;47.502;18.940;2023-07-13T01:26:28;4.93;;;1.00;;
65753;SDS011;69207;47.502;18.940;2023-07-13T01:27:31;1.27;;;0.82;;
65753;SDS011;69207;47.502;18.940;2023-07-13T01:28:36;1.30;;;0.70;;
65753;SDS011;69207;47.502;18.940;2023-07-13T01:29:40;2.30;;;1.00;;
65753;SDS011;69207;47.502;18.940;2023-07-13T01:30:45;0.82;;;0.70;;
65753;SDS011;69207;47.502;18.940;2023-07-13T01:31:49;2.45;;;0.68;;
65753;SDS011;69207;47.502;18.940;2023-07-13T01:32:52;4.85;;;1.02;;
65753;SDS011;69207;47.502;18.940;2023-07-13T01:33:55;1.12;;;0.70;;
65753;SDS011;69207;47.502;18.940;2023-07-13T01:35:00;1.17;;;0.80;;
65753;SDS011;69207;47.502;18.940;2023-07-13T01:36:03;2.83;;;0.93;;
65753;SDS011;69207;47.502;18.940;2023-07-13T01:37:06;3.15;;;0.80;;
65753;SDS011;69207;47.502;18.940;2023-07-13T01:38:10;2.53;;;0.62;;
65753;SDS011;69207;47.502;18.940;2023-07-13T01:39:13;1.17;;;0.88;;
65753;SDS011;69207;47.502;18.940;2023-07-13T01:40:18;3.30;;;0.90;;
65753;SDS011;69207;47.502;18.940;2023-07-13T01:41:21;0.70;;;0.68;;
65753;SDS011;69207;47.502;18.940;2023-07-13T01:42:24;0.98;;;0.80;;
65753;SDS011;69207;47.502;18.940;2023-07-13T01:43:27;3.33;;;1.00;;
65753;SDS011;69207;47.502;18.940;2023-07-13T01:44:30;1.50;;;0.90;;
65753;SDS011;69207;47.502;18.940;2023-07-13T01:45:33;1.65;;;0.77;;
65753;SDS011;69207;47.502;18.940;2023-07-13T01:46:37;1.05;;;0.95;;
65753;SDS011;69207;47.502;18.940;2023-07-13T01:47:40;2.53;;;0.90;;
65753;SDS011;69207;47.502;18.940;2023-07-13T01:48:43;0.93;;;0.73;;
65753;SDS011;69207;47.502;18.940;2023-07-13T01:49:46;1.90;;;0.80;;
65753;SDS011;69207;47.502;18.940;2023-07-13T01:50:49;2.33;;;0.90;;
65753;SDS011;69207;47.502;18.940;2023-07-13T01:51:52;2.40;;;0.90;;
65753;SDS011;69207;47.502;18.940;2023-07-13T01:52:55;1.37;;;0.70;;
65753;SDS011;69207;47.502;18.940;2023-07-13T01:53:58;1.20;;;0.90;;
65753;SDS011;69207;47.502;18.940;2023-07-13T01:55:01;1.55;;;0.80;;
65753;SDS011;69207;47.502;18.940;2023-07-13T01:56:05;1.25;;;0.90;;
65753;SDS011;69207;47.502;18.940;2023-07-13T01:57:07;2.05;;;1.08;;
65753;SDS011;69207;47.502;18.940;2023-07-13T01:58:10;1.33;;;0.88;;
65753;SDS011;69207;47.502;18.940;2023-07-13T01:59:13;1.80;;;1.10;;
65753;SDS011;69207;47.502;18.940;2023-07-13T02:00:16;3.15;;;0.98;;
65753;SDS011;69207;47.502;18.940;2023-07-13T02:01:20;2.67;;;1.17;;
65753;SDS011;69207;47.502;18.940;2023-07-13T02:02:23;4.82;;;0.93;;
65753;SDS011;69207;47.502;18.940;2023-07-13T02:03:26;4.25;;;0.90;;
65753;SDS011;69207;47.502;18.940;2023-07-13T02:04:29;1.45;;;0.90;;
65753;SDS011;69207;47.502;18.940;2023-07-13T02:05:32;2.17;;;1.10;;
65753;SDS011;69207;47.502;18.940;2023-07-13T02:06:35;3.62;;;1.00;;
65753;SDS011;69207;47.502;18.940;2023-07-13T02:07:38;5.15;;;1.00;;
65753;SDS011;69207;47.502;18.940;2023-07-13T02:08:42;1.50;;;0.90;;
65753;SDS011;69207;47.502;18.940;2023-07-13T02:09:45;6.18;;;0.90;;
65753;SDS011;69207;47.502;18.940;2023-07-13T02:10:48;1.48;;;1.10;;
65753;SDS011;69207;47.502;18.940;2023-07-13T02:11:51;1.70;;;0.98;;
65753;SDS011;69207;47.502;18.940;2023-07-13T02:12:54;3.97;;;1.00;;
65753;SDS011;69207;47.502;18.940;2023-07-13T02:13:56;2.70;;;0.70;;
65753;SDS011;69207;47.502;18.940;2023-07-13T02:14:59;2.35;;;0.88;;
65753;SDS011;69207;47.502;18.940;2023-07-13T02:16:03;1.17;;;0.75;;
65753;SDS011;69207;47.502;18.940;2023-07-13T02:17:06;1.23;;;0.80;;
65753;SDS011;69207;47.502;18.940;2023-07-13T02:18:09;3.95;;;1.00;;
65753;SDS011;69207;47.502;18.940;2023-07-13T02:19:12;3.40;;;1.02;;
65753;SDS011;69207;47.502;18.940;2023-07-13T02:20:15;2.72;;;0.85;;
65753;SDS011;69207;47.502;18.940;2023-07-13T02:21:18;1.02;;;0.70;;
65753;SDS011;69207;47.502;18.940;2023-07-13T02:22:21;1.20;;;0.85;;
65753;SDS011;69207;47.502;18.940;2023-07-13T02:23:24;2.08;;;0.90;;
65753;SDS011;69207;47.502;18.940;2023-07-13T02:24:27;1.12;;;0.70;;
65753;SDS011;69207;47.502;18.940;2023-07-13T02:25:30;2.85;;;1.15;;
65753;SDS011;69207;47.502;18.940;2023-07-13T02:26:33;1.10;;;0.90;;
65753;SDS011;69207;47.502;18.940;2023-07-13T02:27:37;0.98;;;0.70;;
65753;SDS011;69207;47.502;18.940;2023-07-13T02:28:40;1.40;;;0.77;;
65753;SDS011;69207;47.502;18.940;2023-07-13T02:29:43;1.73;;;1.00;;
65753;SDS011;69207;47.502;18.940;2023-07-13T02:30:46;1.83;;;0.70;;
65753;SDS011;69207;47.502;18.940;2023-07-13T02:31:48;2.65;;;0.98;;
65753;SDS011;69207;47.502;18.940;2023-07-13T02:32:51;1.70;;;0.77;;
65753;SDS011;69207;47.502;18.940;2023-07-13T02:33:54;2.72;;;0.90;;
65753;SDS011;69207;47.502;18.940;2023-07-13T02:34:57;3.50;;;0.68;;
65753;SDS011;69207;47.502;18.940;2023-07-13T02:36:00;3.10;;;0.62;;
65753;SDS011;69207;47.502;18.940;2023-07-13T02:37:04;0.80;;;0.80;;
65753;SDS011;69207;47.502;18.940;2023-07-13T02:38:07;1.98;;;0.90;;
65753;SDS011;69207;47.502;18.940;2023-07-13T02:39:11;3.92;;;0.88;;
65753;SDS011;69207;47.502;18.940;2023-07-13T02:40:14;7.72;;;1.10;;
65753;SDS011;69207;47.502;18.940;2023-07-13T02:41:17;1.80;;;0.80;;
65753;SDS011;69207;47.502;18.940;2023-07-13T02:42:20;2.55;;;0.80;;
65753;SDS011;69207;47.502;18.940;2023-07-13T02:43:23;2.92;;;0.90;;
65753;SDS011;69207;47.502;18.940;2023-07-13T02:44:26;2.33;;;0.80;;
65753;SDS011;69207;47.502;18.940;2023-07-13T02:45:29;5.00;;;0.93;;
65753;SDS011;69207;47.502;18.940;2023-07-13T02:46:33;3.78;;;0.88;;
65753;SDS011;69207;47.502;18.940;2023-07-13T02:47:38;1.20;;;0.85;;
65753;SDS011;69207;47.502;18.940;2023-07-13T02:48:42;2.08;;;0.80;;
65753;SDS011;69207;47.502;18.940;2023-07-13T02:49:45;2.25;;;0.80;;
65753;SDS011;69207;47.502;18.940;2023-07-13T02:50:48;0.85;;;0.60;;
65753;SDS011;69207;47.502;18.940;2023-07-13T02:51:51;2.53;;;0.80;;
65753;SDS011;69207;47.502;18.940;2023-07-13T02:52:54;4.30;;;1.10;;
65753;SDS011;69207;47.502;18.940;2023-07-13T02:53:56;1.42;;;0.70;;
65753;SDS011;69207;47.502;18.940;2023-07-13T02:54:59;2.97;;;1.08;;
65753;SDS011;69207;47.502;18.940;2023-07-13T02:56:03;3.55;;;0.90;;
65753;SDS011;69207;47.502;18.940;2023-07-13T02:57:07;3.00;;;1.00;;
65753;SDS011;69207;47.502;18.940;2023-07-13T02:58:10;0.93;;;0.68;;
65753;SDS011;69207;47.502;18.940;2023-07-13T02:59:13;0.90;;;0.80;;
65753;SDS011;69207;47.502;18.940;2023-07-13T03:00:16;1.05;;;0.80;;
65753;SDS011;69207;47.502;18.940;2023-07-13T03:01:19;1.10;;;0.80;;
65753;SDS011;69207;47.502;18.940;2023-07-13T03:02:24;1.85;;;0.90;;
65753;SDS011;69207;47.502;18.940;2023-07-13T03:03:27;2.37;;;0.80;;
65753;SDS011;69207;47.502;18.940;2023-07-13T03:04:30;1.90;;;0.98;;
65753;SDS011;69207;47.502;18.940;2023-07-13T03:05:33;1.30;;;0.70;;
65753;SDS011;69207;47.502;18.940;2023-07-13T03:06:36;2.05;;;1.02;;
65753;SDS011;69207;47.502;18.940;2023-07-13T03:07:39;2.65;;;1.17;;
65753;SDS011;69207;47.502;18.940;2023-07-13T03:08:42;3.47;;;1.23;;
65753;SDS011;69207;47.502;18.940;2023-07-13T03:09:46;3.65;;;1.25;;
65753;SDS011;69207;47.502;18.940;2023-07-13T03:10:49;2.95;;;1.00;;
65753;SDS011;69207;47.502;18.940;2023-07-13T03:12:02;2.30;;;1.10;;
65753;SDS011;69207;47.502;18.940;2023-07-13T03:13:05;3.17;;;1.00;;
65753;SDS011;69207;47.502;18.940;2023-07-13T03:14:08;2.83;;;1.08;;
65753;SDS011;69207;47.502;18.940;2023-07-13T03:15:11;4.18;;;1.60;;
65753;SDS011;69207;47.502;18.940;2023-07-13T03:16:14;2.45;;;1.00;;
65753;SDS011;69207;47.502;18.940;2023-07-13T03:17:20;3.10;;;1.17;;
65753;SDS011;69207;47.502;18.940;2023-07-13T03:18:23;5.57;;;1.23;;
65753;SDS011;69207;47.502;18.940;2023-07-13T03:19:27;3.80;;;0.95;;
65753;SDS011;69207;47.502;18.940;2023-07-13T03:20:32;6.15;;;1.58;;
65753;SDS011;69207;47.502;18.940;2023-07-13T03:21:37;3.35;;;1.37;;
65753;SDS011;69207;47.502;18.940;2023-07-13T03:22:40;1.75;;;1.02;;
65753;SDS011;69207;47.502;18.940;2023-07-13T03:23:44;2.45;;;1.20;;
65753;SDS011;69207;47.502;18.940;2023-07-13T03:24:47;3.35;;;1.23;;
65753;SDS011;69207;47.502;18.940;2023-07-13T03:26:00;4.70;;;1.52;;
65753;SDS011;69207;47.502;18.940;2023-07-13T03:27:08;7.45;;;1.48;;
65753;SDS011;69207;47.502;18.940;2023-07-13T03:28:11;5.03;;;1.40;;
65753;SDS011;69207;47.502;18.940;2023-07-13T03:29:15;4.85;;;1.40;;
65753;SDS011;69207;47.502;18.940;2023-07-13T03:30:18;3.12;;;1.60;;
65753;SDS011;69207;47.502;18.940;2023-07-13T03:31:22;3.95;;;1.60;;
65753;SDS011;69207;47.502;18.940;2023-07-13T03:32:27;4.10;;;1.77;;
65753;SDS011;69207;47.502;18.940;2023-07-13T03:33:50;3.75;;;1.60;;
65753;SDS011;69207;47.502;18.940;2023-07-13T03:34:53;2.55;;;1.60;;
65753;SDS011;69207;47.502;18.940;2023-07-13T03:35:56;4.60;;;1.48;;
65753;SDS011;69207;47.502;18.940;2023-07-13T03:37:00;4.50;;;1.75;;
65753;SDS011;69207;47.502;18.940;2023-07-13T03:38:02;1.83;;;1.50;;
65753;SDS011;69207;47.502;18.940;2023-07-13T03:39:05;1.65;;;1.37;;
65753;SDS011;69207;47.502;18.940;2023-07-13T03:40:11;2.87;;;1.60;;
65753;SDS011;69207;47.502;18.940;2023-07-13T03:41:15;4.43;;;1.75;;
65753;SDS011;69207;47.502;18.940;2023-07-13T03:42:18;2.37;;;1.30;;
65753;SDS011;69207;47.502;18.940;2023-07-13T03:43:21;3.03;;;1.55;;
65753;SDS011;69207;47.502;18.940;2023-07-13T03:44:24;3.97;;;1.60;;
65753;SDS011;69207;47.502;18.940;2023-07-13T03:45:27;2.45;;;1.50;;
65753;SDS011;69207;47.502;18.940;2023-07-13T03:46:29;2.65;;;1.80;;
65753;SDS011;69207;47.502;18.940;2023-07-13T03:47:32;4.57;;;1.52;;
65753;SDS011;69207;47.502;18.940;2023-07-13T03:48:35;2.37;;;1.42;;
65753;SDS011;69207;47.502;18.940;2023-07-13T03:49:38;4.50;;;1.70;;
65753;SDS011;69207;47.502;18.940;2023-07-13T03:50:41;2.15;;;1.73;;
65753;SDS011;69207;47.502;18.940;2023-07-13T03:51:44;4.15;;;1.65;;
65753;SDS011;69207;47.502;18.940;2023-07-13T03:52:47;3.47;;;1.80;;
65753;SDS011;69207;47.502;18.940;2023-07-13T03:53:49;2.30;;;1.73;;
65753;SDS011;69207;47.502;18.940;2023-07-13T03:54:52;4.78;;;1.62;;
65753;SDS011;69207;47.502;18.940;2023-07-13T03:55:55;3.87;;;1.70;;
65753;SDS011;69207;47.502;18.940;2023-07-13T03:56:58;3.20;;;1.65;;
65753;SDS011;69207;47.502;18.940;2023-07-13T03:58:06;3.22;;;1.98;;
65753;SDS011;69207;47.502;18.940;2023-07-13T03:59:34;1.80;;;1.25;;
65753;SDS011;69207;47.502;18.940;2023-07-13T04:00:37;2.60;;;1.80;;
65753;SDS011;69207;47.502;18.940;2023-07-13T04:01:40;2.80;;;1.70;;
65753;SDS011;69207;47.502;18.940;2023-07-13T04:02:43;3.25;;;1.55;;
65753;SDS011;69207;47.502;18.940;2023-07-13T04:03:45;1.98;;;1.60;;
65753;SDS011;69207;47.502;18.940;2023-07-13T04:04:49;1.87;;;1.40;;
65753;SDS011;69207;47.502;18.940;2023-07-13T04:05:52;1.85;;;1.27;;
65753;SDS011;69207;47.502;18.940;2023-07-13T04:06:56;1.83;;;1.37;;
65753;SDS011;69207;47.502;18.940;2023-07-13T04:08:00;2.28;;;1.50;;
65753;SDS011;69207;47.502;18.940;2023-07-13T04:09:03;3.33;;;1.55;;
65753;SDS011;69207;47.502;18.940;2023-07-13T04:10:10;3.47;;;1.67;;
65753;SDS011;69207;47.502;18.940;2023-07-13T04:11:13;2.58;;;1.50;;
65753;SDS011;69207;47.502;18.940;2023-07-13T04:12:16;1.90;;;1.65;;
65753;SDS011;69207;47.502;18.940;2023-07-13T04:13:18;4.55;;;1.70;;
65753;SDS011;69207;47.502;18.940;2023-07-13T04:14:21;3.45;;;1.87;;
65753;SDS011;69207;47.502;18.940;2023-07-13T04:15:24;2.90;;;1.83;;
65753;SDS011;69207;47.502;18.940;2023-07-13T04:16:26;2.90;;;1.87;;
65753;SDS011;69207;47.502;18.940;2023-07-13T04:17:29;4.12;;;1.80;;
65753;SDS011;69207;47.502;18.940;2023-07-13T04:18:32;4.75;;;1.60;;
65753;SDS011;69207;47.502;18.940;2023-07-13T04:19:35;2.33;;;1.60;;
65753;SDS011;69207;47.502;18.940;2023-07-13T04:20:37;1.80;;;1.70;;
65753;SDS011;69207;47.502;18.940;2023-07-13T04:21:40;4.65;;;2.00;;
65753;SDS011;69207;47.502;18.940;2023-07-13T04:22:43;5.05;;;1.77;;
65753;SDS011;69207;47.502;18.940;2023-07-13T04:23:46;4.37;;;1.60;;
65753;SDS011;69207;47.502;18.940;2023-07-13T04:24:49;2.10;;;1.65;;
65753;SDS011;69207;47.502;18.940;2023-07-13T04:25:52;5.93;;;1.95;;
65753;SDS011;69207;47.502;18.940;2023-07-13T04:26:55;5.87;;;1.60;;
65753;SDS011;69207;47.502;18.940;2023-07-13T04:28:02;1.98;;;1.75;;
65753;SDS011;69207;47.502;18.940;2023-07-13T04:29:06;2.33;;;1.45;;
65753;SDS011;69207;47.502;18.940;2023-07-13T04:30:09;3.45;;;1.70;;
65753;SDS011;69207;47.502;18.940;2023-07-13T04:31:12;2.47;;;1.50;;
65753;SDS011;69207;47.502;18.940;2023-07-13T04:32:15;3.50;;;1.60;;
65753;SDS011;69207;47.502;18.940;2023-07-13T04:33:18;3.00;;;1.40;;
65753;SDS011;69207;47.502;18.940;2023-07-13T04:34:30;2.45;;;1.48;;
65753;SDS011;69207;47.502;18.940;2023-07-13T04:35:33;3.10;;;1.60;;
65753;SDS011;69207;47.502;18.940;2023-07-13T04:36:36;2.83;;;1.60;;
65753;SDS011;69207;47.502;18.940;2023-07-13T04:37:40;9.05;;;2.12;;
65753;SDS011;69207;47.502;18.940;2023-07-13T04:38:43;4.55;;;1.60;;
65753;SDS011;69207;47.502;18.940;2023-07-13T04:39:46;2.92;;;1.55;;
65753;SDS011;69207;47.502;18.940;2023-07-13T04:40:49;3.00;;;1.50;;
65753;SDS011;69207;47.502;18.940;2023-07-13T04:41:52;4.03;;;1.58;;
65753;SDS011;69207;47.502;18.940;2023-07-13T04:42:55;2.40;;;1.40;;
65753;SDS011;69207;47.502;18.940;2023-07-13T04:43:58;3.78;;;2.00;;
65753;SDS011;69207;47.502;18.940;2023-07-13T04:45:01;3.40;;;2.20;;
65753;SDS011;69207;47.502;18.940;2023-07-13T04:46:05;4.62;;;2.20;;
65753;SDS011;69207;47.502;18.940;2023-07-13T04:47:10;5.37;;;2.10;;
65753;SDS011;69207;47.502;18.940;2023-07-13T04:48:12;2.62;;;1.90;;
65753;SDS011;69207;47.502;18.940;2023-07-13T04:49:15;4.15;;;2.42;;
65753;SDS011;69207;47.502;18.940;2023-07-13T04:50:18;5.87;;;3.03;;
65753;SDS011;69207;47.502;18.940;2023-07-13T04:51:25;6.55;;;2.80;;
65753;SDS011;69207;47.502;18.940;2023-07-13T04:52:28;5.90;;;3.00;;
65753;SDS011;69207;47.502;18.940;2023-07-13T04:53:31;4.40;;;2.92;;
65753;SDS011;69207;47.502;18.940;2023-07-13T04:54:35;6.50;;;3.08;;
65753;SDS011;69207;47.502;18.940;2023-07-13T04:55:37;10.10;;;3.25;;
65753;SDS011;69207;47.502;18.940;2023-07-13T04:56:40;6.07;;;3.33;;
65753;SDS011;69207;47.502;18.940;2023-07-13T04:57:43;7.60;;;3.20;;
65753;SDS011;69207;47.502;18.940;2023-07-13T04:58:46;10.23;;;2.97;;
65753;SDS011;69207;47.502;18.940;2023-07-13T04:59:48;6.43;;;2.95;;
65753;SDS011;69207;47.502;18.940;2023-07-13T05:00:51;6.97;;;3.45;;
65753;SDS011;69207;47.502;18.940;2023-07-13T05:01:54;7.95;;;3.37;;
65753;SDS011;69207;47.502;18.940;2023-07-13T05:02:57;7.82;;;2.90;;
65753;SDS011;69207;47.502;18.940;2023-07-13T05:04:01;7.35;;;3.08;;
65753;SDS011;69207;47.502;18.940;2023-07-13T05:05:04;8.13;;;2.90;;
65753;SDS011;69207;47.502;18.940;2023-07-13T05:06:08;7.68;;;2.87;;
65753;SDS011;69207;47.502;18.940;2023-07-13T05:07:14;6.15;;;2.87;;
65753;SDS011;69207;47.502;18.940;2023-07-13T05:08:17;5.60;;;2.70;;
65753;SDS011;69207;47.502;18.940;2023-07-13T05:09:20;3.62;;;2.60;;
65753;SDS011;69207;47.502;18.940;2023-07-13T05:10:22;11.85;;;3.22;;
65753;SDS011;69207;47.502;18.940;2023-07-13T05:11:26;7.47;;;3.20;;
65753;SDS011;69207;47.502;18.940;2023-07-13T05:12:28;5.18;;;3.30;;
65753;SDS011;69207;47.502;18.940;2023-07-13T05:13:31;7.37;;;3.55;;
65753;SDS011;69207;47.502;18.940;2023-07-13T05:14:34;12.35;;;3.65;;
65753;SDS011;69207;47.502;18.940;2023-07-13T05:15:37;6.82;;;4.00;;
65753;SDS011;69207;47.502;18.940;2023-07-13T05:16:39;7.55;;;3.45;;
65753;SDS011;69207;47.502;18.940;2023-07-13T05:17:42;10.38;;;4.03;;
65753;SDS011;69207;47.502;18.940;2023-07-13T05:18:45;7.10;;;3.80;;
65753;SDS011;69207;47.502;18.940;2023-07-13T05:19:47;5.35;;;3.65;;
65753;SDS011;69207;47.502;18.940;2023-07-13T05:20:57;6.85;;;3.95;;
65753;SDS011;69207;47.502;18.940;2023-07-13T05:22:08;7.03;;;4.22;;
65753;SDS011;69207;47.502;18.940;2023-07-13T05:23:11;8.68;;;4.20;;
65753;SDS011;69207;47.502;18.940;2023-07-13T05:24:13;8.40;;;3.65;;
65753;SDS011;69207;47.502;18.940;2023-07-13T05:25:27;6.65;;;3.45;;
65753;SDS011;69207;47.502;18.940;2023-07-13T05:26:29;5.60;;;3.37;;
65753;SDS011;69207;47.502;18.940;2023-07-13T05:27:32;6.72;;;3.03;;
65753;SDS011;69207;47.502;18.940;2023-07-13T05:28:36;6.15;;;2.80;;
65753;SDS011;69207;47.502;18.940;2023-07-13T05:29:40;4.55;;;3.40;;
65753;SDS011;69207;47.502;18.940;2023-07-13T05:30:46;4.25;;;2.55;;
65753;SDS011;69207;47.502;18.940;2023-07-13T05:31:49;6.70;;;2.60;;
65753;SDS011;69207;47.502;18.940;2023-07-13T05:32:52;8.07;;;3.00;;
65753;SDS011;69207;47.502;18.940;2023-07-13T05:33:55;4.53;;;2.60;;
65753;SDS011;69207;47.502;18.940;2023-07-13T05:34:58;5.47;;;2.47;;
65753;SDS011;69207;47.502;18.940;2023-07-13T05:36:01;5.03;;;2.83;;
65753;SDS011;69207;47.502;18.940;2023-07-13T05:37:04;4.80;;;2.97;;
65753;SDS011;69207;47.502;18.940;2023-07-13T05:38:07;5.18;;;2.10;;
65753;SDS011;69207;47.502;18.940;2023-07-13T05:39:09;5.03;;;2.30;;
65753;SDS011;69207;47.502;18.940;2023-07-13T05:40:13;6.70;;;2.50;;
65753;SDS011;69207;47.502;18.940;2023-07-13T05:41:16;3.55;;;2.50;;
65753;SDS011;69207;47.502;18.940;2023-07-13T05:42:19;3.87;;;2.35;;
65753;SDS011;69207;47.502;18.940;2023-07-13T05:43:22;4.00;;;2.45;;
65753;SDS011;69207;47.502;18.940;2023-07-13T05:44:25;4.65;;;1.95;;
65753;SDS011;69207;47.502;18.940;2023-07-13T05:45:27;4.53;;;2.12;;
65753;SDS011;69207;47.502;18.940;2023-07-13T05:46:30;24.25;;;2.72;;
65753;SDS011;69207;47.502;18.940;2023-07-13T05:47:33;9.30;;;2.15;;
65753;SDS011;69207;47.502;18.940;2023-07-13T05:48:36;4.87;;;1.95;;
65753;SDS011;69207;47.502;18.940;2023-07-13T05:49:38;8.68;;;2.47;;
65753;SDS011;69207;47.502;18.940;2023-07-13T05:50:41;7.57;;;2.37;;
65753;SDS011;69207;47.502;18.940;2023-07-13T05:51:44;6.57;;;2.15;;
65753;SDS011;69207;47.502;18.940;2023-07-13T05:52:46;4.85;;;2.20;;
65753;SDS011;69207;47.502;18.940;2023-07-13T05:53:49;5.30;;;1.90;;
65753;SDS011;69207;47.502;18.940;2023-07-13T05:54:52;3.80;;;1.85;;
65753;SDS011;69207;47.502;18.940;2023-07-13T05:55:55;3.03;;;1.65;;
65753;SDS011;69207;47.502;18.940;2023-07-13T05:57:00;3.60;;;1.80;;
65753;SDS011;69207;47.502;18.940;2023-07-13T05:58:03;2.95;;;1.92;;
65753;SDS011;69207;47.502;18.940;2023-07-13T05:59:06;3.47;;;1.90;;
65753;SDS011;69207;47.502;18.940;2023-07-13T06:00:09;9.55;;;1.80;;
65753;SDS011;69207;47.502;18.940;2023-07-13T06:01:12;4.57;;;1.87;;
65753;SDS011;69207;47.502;18.940;2023-07-13T06:02:17;2.55;;;1.87;;
65753;SDS011;69207;47.502;18.940;2023-07-13T06:03:20;6.10;;;1.90;;
65753;SDS011;69207;47.502;18.940;2023-07-13T06:04:22;3.45;;;1.70;;
65753;SDS011;69207;47.502;18.940;2023-07-13T06:05:25;5.03;;;1.70;;
65753;SDS011;69207;47.502;18.940;2023-07-13T06:06:31;4.25;;;1.85;;
65753;SDS011;69207;47.502;18.940;2023-07-13T06:07:33;3.10;;;1.52;;
65753;SDS011;69207;47.502;18.940;2023-07-13T06:08:36;5.82;;;1.80;;
65753;SDS011;69207;47.502;18.940;2023-07-13T06:09:39;4.62;;;2.15;;
65753;SDS011;69207;47.502;18.940;2023-07-13T06:10:42;4.95;;;1.77;;
65753;SDS011;69207;47.502;18.940;2023-07-13T06:11:44;2.95;;;1.48;;
65753;SDS011;69207;47.502;18.940;2023-07-13T06:12:47;8.00;;;1.73;;
65753;SDS011;69207;47.502;18.940;2023-07-13T06:13:50;3.50;;;1.45;;
65753;SDS011;69207;47.502;18.940;2023-07-13T06:14:53;2.83;;;1.55;;
65753;SDS011;69207;47.502;18.940;2023-07-13T06:15:55;4.25;;;1.55;;
65753;SDS011;69207;47.502;18.940;2023-07-13T06:16:58;3.83;;;1.60;;
65753;SDS011;69207;47.502;18.940;2023-07-13T06:18:01;1.83;;;1.02;;
65753;SDS011;69207;47.502;18.940;2023-07-13T06:19:03;3.62;;;1.40;;
65753;SDS011;69207;47.502;18.940;2023-07-13T06:20:06;5.28;;;1.50;;